Thunder radar more information blitzortung!


Rain radar more information rain snow radar


Equipment we use:

Davis VP2

Weather Display

BareMetal


Weather Underground History page Text

Daily Summary for October 20, 2018 Units:  Metric    English   Both
« Previous Day
Next Day »
Daily Weekly Monthly Yearly Custom
  Current: High: Low: Average:
Temperature: -10.2 °C -17.8 °C -14.8 °C -13.1 °C
Dew Point: -11.6 °C -17.8 °C -15.1 °C -13.5 °C
Humidity: 85 % Humidity % 83 % 96 %
Wind Speed: 15 km/h 0 km/h 0 km/h 3.2 km/h
Wind Gust: 7.7 km/h 0 km/h - -
Wind:WSW - - WSW
Pressure: 34537.2 hPa 0 hPa 34537.2 hPa -
Precipitation: 10.16 mm      
Historical Graphs
 
 
Tabular Data for October 20, 2018
Time Temperature Dew Point Pressure Wind Wind Speed Wind Gust Humidity Rainfall Rate (Hourly)
-17.8 °C -17.8 °C 0 hPa Calm     Humidity % 0 mm
00:04 -13.7 °C -14.1 °C 34699.7 hPa Calm     96 % 0 mm
00:09 -13.8 °C -14.1 °C 34696.3 hPa Calm     96 % 0 mm
00:14 -13.8 °C -14.1 °C 34696.3 hPa Calm     96 % 0 mm
00:19 -13.8 °C -14.1 °C 34696.3 hPa Calm     96 % 0 mm
00:24 -13.8 °C -14 °C 34699.7 hPa Calm     97 % 0 mm
00:29 -13.8 °C -14.2 °C 34696.3 hPa Calm     96 % 0 mm
00:34 -13.9 °C -14.2 °C 34693 hPa Calm     96 % 0 mm
00:39 -13.9 °C -14.3 °C 34696.3 hPa Calm     96 % 0 mm
00:44 -14 °C -14.3 °C 34693 hPa Calm     96 % 0 mm
00:49 -14 °C -14.3 °C 34693 hPa Calm     96 % 0 mm
00:54 -14.1 °C -14.3 °C 34693 hPa Calm     97 % 0 mm
00:59 -14 °C -14.3 °C 34693 hPa Calm     97 % 0 mm
01:04 -13.9 °C -14.2 °C 34696.3 hPa Calm     97 % 0 mm
01:09 -13.9 °C -14.1 °C 34696.3 hPa Calm     97 % 5.08 mm
01:14 -13.8 °C -14.1 °C 34696.3 hPa Calm     97 % 5.08 mm
01:19 -13.8 °C -14 °C 34696.3 hPa Calm     97 % 5.08 mm
01:24 -13.7 °C -14 °C 34696.3 hPa Calm     97 % 5.08 mm
01:29 -13.7 °C -13.9 °C 34699.7 hPa Calm     97 % 5.08 mm
01:34 -13.6 °C -13.8 °C 34703.1 hPa Calm     97 % 5.08 mm
01:39 -13.7 °C -13.9 °C 34703.1 hPa Calm     97 % 5.08 mm
01:44 -13.7 °C -13.9 °C 34699.7 hPa Calm     97 % 5.08 mm
01:49 -13.7 °C -14 °C 34703.1 hPa Calm     97 % 5.08 mm
01:54 -13.8 °C -14 °C 34696.3 hPa Calm     97 % 5.08 mm
01:59 -13.9 °C -14.1 °C 34699.7 hPa Calm     97 % 5.08 mm
02:04 -14 °C -14.2 °C 34696.3 hPa Calm     97 % 5.08 mm
02:09 -14.1 °C -14.3 °C 34699.7 hPa Calm     97 % 0 mm
02:14 -14.1 °C -14.3 °C 34696.3 hPa Calm     97 % 0 mm
02:19 -14 °C -14.2 °C 34696.3 hPa Calm     97 % 0 mm
02:24 -13.9 °C -14.2 °C 34693 hPa Calm     97 % 0 mm
02:29 -13.9 °C -14.2 °C 34693 hPa Calm     97 % 0 mm
02:34 -14.1 °C -14.3 °C 34689.6 hPa Calm     97 % 0 mm
02:39 -14.1 °C -14.4 °C 34693 hPa Calm     97 % 0 mm
02:44 -14.1 °C -14.4 °C 34693 hPa Calm     97 % 0 mm
02:49 -14.2 °C -14.4 °C 34696.3 hPa Calm     97 % 0 mm
02:54 -14.3 °C -14.5 °C 34696.3 hPa Calm     97 % 0 mm
02:59 -14.4 °C -14.6 °C 34696.3 hPa Calm     97 % 0 mm
03:04 -14.5 °C -14.8 °C 34696.3 hPa Calm     96 % 0 mm
03:09 -14.6 °C -14.8 °C 34696.3 hPa Calm     97 % 0 mm
03:14 -14.6 °C -14.8 °C 34699.7 hPa Calm     97 % 0 mm
03:19 -14.6 °C -14.9 °C 34703.1 hPa Calm     97 % 0 mm
03:24 -14.6 °C -14.9 °C 34703.1 hPa Calm     97 % 0 mm
03:29 -14.6 °C -14.8 °C 34703.1 hPa Calm     97 % 0 mm
03:34 -14.4 °C -14.6 °C 34703.1 hPa Calm     98 % 0 mm
03:39 -14.5 °C -14.8 °C 34706.5 hPa ESE 3.1 km/h 2.3 km/h 97 % 0 mm
03:44 -14.4 °C -14.7 °C 34709.9 hPa Calm     97 % 0 mm
03:49 -14.3 °C -14.4 °C 34709.9 hPa Calm     98 % 0 mm
03:54 -14.2 °C -14.3 °C 34709.9 hPa Calm     98 % 0 mm
03:59 -14.2 °C -14.3 °C 34709.9 hPa Calm     98 % 0 mm
04:04 -14.2 °C -14.3 °C 34709.9 hPa Calm     98 % 0 mm
04:09 -14.3 °C -14.5 °C 34706.5 hPa Calm     97 % 0 mm
04:14 -14.3 °C -14.6 °C 34709.9 hPa Calm     97 % 0 mm
04:19 -14.3 °C -14.6 °C 34699.7 hPa ESE 3.1 km/h 2.1 km/h 97 % 0 mm
04:24 -14.4 °C -14.6 °C 34703.1 hPa Calm     97 % 0 mm
04:29 -14.4 °C -14.7 °C 34699.7 hPa Calm     97 % 0 mm
04:34 -14.5 °C -14.7 °C 34703.1 hPa Calm     97 % 0 mm
04:39 -14.5 °C -14.7 °C 34703.1 hPa ESE 2.6 km/h 0.8 km/h 97 % 0 mm
04:44 -14.6 °C -14.8 °C 34696.3 hPa Calm     97 % 0 mm
04:49 -14.7 °C -14.9 °C 34703.1 hPa Calm     97 % 0 mm
04:54 -14.7 °C -14.9 °C 34699.7 hPa Calm     97 % 0 mm
04:59 -14.8 °C -15.1 °C 34699.7 hPa Calm     97 % 0 mm
05:04 -14.8 °C -15.1 °C 34699.7 hPa Calm     97 % 0 mm
05:09 -14.8 °C -15.1 °C 34703.1 hPa Calm     97 % 0 mm
05:14 -14.8 °C -15.1 °C 34696.3 hPa Calm     97 % 0 mm
05:19 -14.8 °C -15 °C 34699.7 hPa Calm     97 % 0 mm
05:24 -14.6 °C -14.7 °C 34699.7 hPa Calm     98 % 0 mm
05:29 -14.5 °C -14.7 °C 34699.7 hPa Calm     98 % 0 mm
05:34 -14.5 °C -14.7 °C 34699.7 hPa Calm     98 % 0 mm
05:39 -14.6 °C -14.7 °C 34699.7 hPa Calm     98 % 0 mm
05:44 -14.6 °C -14.7 °C 34703.1 hPa Calm     98 % 0 mm
05:49 -14.6 °C -14.8 °C 34703.1 hPa Calm     98 % 0 mm
05:54 -14.6 °C -14.8 °C 34699.7 hPa Calm     98 % 0 mm
05:59 -14.6 °C -14.8 °C 34699.7 hPa Calm     98 % 0 mm
06:04 -14.6 °C -14.7 °C 34699.7 hPa Calm     98 % 0 mm
06:09 -14.6 °C -14.7 °C 34703.1 hPa Calm     98 % 0 mm
06:14 -14.5 °C -14.7 °C 34699.7 hPa Calm     98 % 0 mm
06:19 -14.5 °C -14.6 °C 34699.7 hPa Calm     98 % 0 mm
06:24 -14.4 °C -14.6 °C 34699.7 hPa Calm     98 % 0 mm
06:29 -14.3 °C -14.5 °C 34699.7 hPa Calm     98 % 0 mm
06:34 -14.3 °C -14.5 °C 34696.3 hPa Calm     98 % 0 mm
06:39 -14.3 °C -14.4 °C 34699.7 hPa Calm     98 % 0 mm
06:44 -14.1 °C -14.3 °C 34699.7 hPa Calm     98 % 0 mm
06:49 -14.1 °C -14.3 °C 34699.7 hPa Calm     98 % 0 mm
06:54 -14.1 °C -14.2 °C 34699.7 hPa Calm     98 % 0 mm
06:59 -14 °C -14.2 °C 34696.3 hPa Calm     98 % 0 mm
07:04 -14 °C -14.1 °C 34696.3 hPa Calm     98 % 0 mm
07:09 -13.9 °C -14.1 °C 34693 hPa Calm     98 % 0 mm
07:14 -13.9 °C -14.1 °C 34696.3 hPa Calm     98 % 0 mm
07:19 -13.9 °C -14.1 °C 34699.7 hPa Calm     98 % 0 mm
07:24 -13.8 °C -14 °C 34696.3 hPa Calm     98 % 0 mm
07:29 -13.9 °C -14.1 °C 34696.3 hPa ESE 6 km/h 4.2 km/h 98 % 0 mm
07:34 -14 °C -14.1 °C 34693 hPa Calm     98 % 0 mm
07:39 -14 °C -14.2 °C 34693 hPa Calm     98 % 0 mm
07:44 -14 °C -14.2 °C 34693 hPa Calm     98 % 0 mm
07:49 -14 °C -14.2 °C 34693 hPa Calm     98 % 0 mm
07:54 -14 °C -14.1 °C 34693 hPa Calm     98 % 0 mm
07:59 -13.9 °C -14.1 °C 34693 hPa Calm     98 % 0 mm
08:04 -13.9 °C -14.1 °C 34693 hPa Calm     98 % 0 mm
08:09 -13.9 °C -14.1 °C 34693 hPa Calm     98 % 0 mm
08:14 -13.8 °C -14 °C 34696.3 hPa Calm     98 % 0 mm
08:19 -13.8 °C -13.9 °C 34696.3 hPa Calm     99 % 0 mm
08:24 -13.7 °C -13.8 °C 34693 hPa Calm     98 % 0 mm
08:29 -13.7 °C -13.7 °C 34693 hPa Calm     99 % 0 mm
08:34 -13.6 °C -13.7 °C 34693 hPa Calm     99 % 0 mm
08:39 -13.6 °C -13.7 °C 34689.6 hPa Calm     99 % 0 mm
08:44 -13.5 °C -13.6 °C 34693 hPa Calm     99 % 0 mm
08:49 -13.4 °C -13.5 °C 34689.6 hPa Calm     99 % 0 mm
08:54 -13.4 °C -13.5 °C 34689.6 hPa Calm     99 % 0 mm
08:59 -13.4 °C -13.4 °C 34689.6 hPa ESE 3.1 km/h   99 % 0 mm
09:04 -13.4 °C -13.4 °C 34689.6 hPa ESE 6 km/h   99 % 0 mm
09:09 -13.3 °C -13.4 °C 34689.6 hPa Calm     99 % 0 mm
09:14 -13.3 °C -13.5 °C 34689.6 hPa Calm     98 % 0 mm
09:19 -13.3 °C -13.5 °C 34689.6 hPa Calm     98 % 0 mm
09:24 -13.3 °C -13.4 °C 34689.6 hPa Calm     98 % 0 mm
09:29 -13.3 °C -13.4 °C 34689.6 hPa Calm     98 % 0 mm
09:34 -13.3 °C -13.4 °C 34689.6 hPa ESE 9 km/h 2.6 km/h 99 % 0 mm
09:39 -13.2 °C -13.3 °C 34689.6 hPa Calm     99 % 0 mm
09:44 -13.2 °C -13.3 °C 34689.6 hPa ESE 9 km/h 6.3 km/h 99 % 0 mm
09:49 -13.2 °C -13.2 °C 34689.6 hPa Calm     99 % 0 mm
09:54 -13.2 °C -13.2 °C 34689.6 hPa Calm     99 % 0 mm
09:59 -13.2 °C -13.2 °C 34686.2 hPa Calm     99 % 0 mm
10:04 -13.1 °C -13.2 °C 34686.2 hPa Calm     99 % 0 mm
10:09 -13.1 °C -13.2 °C 34686.2 hPa Calm     99 % 0 mm
10:14 -13.1 °C -13.2 °C 34686.2 hPa Calm     99 % 0 mm
10:19 -13 °C -13.1 °C 34689.6 hPa Calm     99 % 0 mm
10:24 -12.9 °C -13.1 °C 34689.6 hPa Calm   0.5 km/h 99 % 0 mm
10:29 -12.9 °C -13 °C 34689.6 hPa SE 6 km/h 1.6 km/h 99 % 0 mm
10:34 -12.9 °C -13 °C 34689.6 hPa Calm     99 % 0 mm
10:40 -12.9 °C -13 °C 34689.6 hPa Calm     99 % 0 mm
10:44 -12.9 °C -13 °C 34689.6 hPa Calm     99 % 0 mm
10:49 -12.9 °C -12.9 °C 34689.6 hPa Calm     99 % 0 mm
10:54 -12.8 °C -12.9 °C 34686.2 hPa Calm     99 % 0 mm
10:59 -12.7 °C -12.8 °C 34686.2 hPa Calm     99 % 0 mm
11:04 -12.7 °C -12.8 °C 34682.8 hPa Calm     99 % 0 mm
11:09 -12.7 °C -12.8 °C 34682.8 hPa Calm     99 % 0 mm
11:14 -12.7 °C -12.7 °C 34682.8 hPa Calm     99 % 0 mm
11:19 -12.7 °C -12.7 °C 34679.4 hPa SSW 7.7 km/h 5.5 km/h 99 % 0 mm
11:24 -12.7 °C -12.8 °C 34679.4 hPa Calm     99 % 0 mm
11:29 -12.7 °C -12.8 °C 34679.4 hPa SW 6 km/h 3.4 km/h 99 % 0 mm
11:34 -12.6 °C -12.7 °C 34676 hPa Calm     99 % 0 mm
11:39 -12.6 °C -12.6 °C 34676 hPa Calm     99 % 0 mm
11:44 -12.6 °C -12.6 °C 34672.6 hPa Calm     99 % 0 mm
11:49 -12.4 °C -12.6 °C 34669.3 hPa SW 7.7 km/h 3.4 km/h 99 % 5.08 mm
11:54 -12.4 °C -12.6 °C 34669.3 hPa Calm     99 % 5.08 mm
11:59 -12.4 °C -12.6 °C 34665.9 hPa Calm     99 % 5.08 mm
12:04 -12.4 °C -12.6 °C 34662.5 hPa Calm     99 % 5.08 mm
12:09 -12.4 °C -12.5 °C 34665.9 hPa NW 3.1 km/h 0.5 km/h 99 % 5.08 mm
12:14 -12.4 °C -12.5 °C 34662.5 hPa WNW 9 km/h 2.1 km/h 99 % 5.08 mm
12:19 -12.4 °C -12.5 °C 34662.5 hPa Calm     99 % 5.08 mm
12:24 -12.3 °C -12.4 °C 34659.1 hPa Calm     99 % 5.08 mm
12:29 -12.2 °C -12.3 °C 34659.1 hPa NW 9 km/h 5 km/h 99 % 5.08 mm
12:34 -12.2 °C -12.3 °C 34655.7 hPa NW 9 km/h 5.5 km/h 99 % 5.08 mm
12:39 -12.3 °C -12.3 °C 34652.3 hPa NW 9 km/h 2.6 km/h 99 % 5.08 mm
12:44 -12.3 °C -12.3 °C 34652.3 hPa NW 9 km/h 0.3 km/h 99 % 5.08 mm
12:49 -12.2 °C -12.3 °C 34648.9 hPa NW 9 km/h 3.4 km/h 99 % 0 mm
12:54 -12.2 °C -12.3 °C 34642.2 hPa Calm     99 % 0 mm
12:59 -12.2 °C -12.3 °C 34638.8 hPa NW 5.1 km/h 0.5 km/h 99 % 0 mm
13:04 -12.1 °C -12.2 °C 34635.4 hPa NW 3.1 km/h   99 % 0 mm
13:09 -12 °C -12.1 °C 34632 hPa Calm     99 % 0 mm
13:14 -11.8 °C -11.9 °C 34625.2 hPa Calm     99 % 0 mm
13:19 -11.7 °C -11.8 °C 34625.2 hPa NW 9 km/h 1.3 km/h 99 % 0 mm
13:24 -11.5 °C -11.6 °C 34621.9 hPa NW 9 km/h 0.8 km/h 99 % 0 mm
13:29 -11.4 °C -11.6 °C 34618.5 hPa West 9 km/h 4.3 km/h 98 % 0 mm
13:34 -11.3 °C -11.5 °C 34618.5 hPa West 15 km/h 8 km/h 98 % 0 mm
13:39 -11.2 °C -11.5 °C 34615.1 hPa WSW 15 km/h 8.5 km/h 97 % 0 mm
13:44 -11.1 °C -11.4 °C 34611.7 hPa WSW 15.6 km/h 7.7 km/h 96 % 0 mm
13:49 -11.1 °C -11.6 °C 34608.3 hPa West 10.3 km/h 7.7 km/h 94 % 0 mm
13:54 -11 °C -11.7 °C 34604.9 hPa WNW 11.9 km/h 6.9 km/h 92 % 0 mm
13:59 -10.9 °C -11.8 °C 34601.5 hPa WNW 17.9 km/h 7.6 km/h 90 % 0 mm
14:04 -10.8 °C -11.8 °C 34594.8 hPa SW 17.9 km/h 9.7 km/h 89 % 0 mm
14:09 -10.7 °C -11.8 °C 34594.8 hPa West 15 km/h 6.4 km/h 88 % 0 mm
14:14 -10.6 °C -11.7 °C 34588 hPa SW 11.9 km/h 5.1 km/h 88 % 0 mm
14:19 -10.5 °C -11.7 °C 34588 hPa WNW 9 km/h 7.2 km/h 87 % 0 mm
14:24 -10.5 °C -11.8 °C 34588 hPa West 17.9 km/h 9.8 km/h 86 % 0 mm
14:29 -10.5 °C -11.8 °C 34581.2 hPa NW 20.9 km/h 14.5 km/h 85 % 0 mm
14:34 -10.4 °C -11.8 °C 34577.8 hPa NW 20.9 km/h 9.7 km/h 85 % 0 mm
14:39 -10.3 °C -11.7 °C 34574.4 hPa WNW 15 km/h 5.1 km/h 85 % 0 mm
14:44 -10.3 °C -11.7 °C 34581.2 hPa WNW 9 km/h 8.5 km/h 85 % 0 mm
14:49 -10.2 °C -11.7 °C 34581.2 hPa WNW 17.9 km/h 10.9 km/h 84 % 0 mm
14:54 -10.2 °C -11.6 °C 34577.8 hPa WSW 12.9 km/h 8.2 km/h 85 % 0 mm
14:59 -10.2 °C -11.7 °C 34571.1 hPa WNW 11.9 km/h 9.3 km/h 84 % 0 mm
15:04 -10.2 °C -11.6 °C 34571.1 hPa WSW 12.9 km/h 7.6 km/h 85 % 0 mm
15:09 -10.2 °C -11.7 °C 34567.7 hPa WNW 15 km/h 9.7 km/h 84 % 0 mm
15:14 -10.2 °C -11.6 °C 34564.3 hPa WNW 11.9 km/h 4.7 km/h 84 % 0 mm
15:19 -10.1 °C -11.6 °C 34560.9 hPa West 9 km/h 7.6 km/h 84 % 0 mm
15:24 -10.1 °C -11.7 °C 34560.9 hPa WNW 23.8 km/h 9.8 km/h 83 % 0 mm
15:29 -10.1 °C -11.7 °C 34557.5 hPa WNW 15 km/h 6.8 km/h 83 % 0 mm
15:34 -10.1 °C -11.7 °C 34554.1 hPa SW 15 km/h 8 km/h 83 % 0 mm
15:39 -10.1 °C -11.6 °C 34550.7 hPa West 11.9 km/h 9.3 km/h 84 % 0 mm
15:44 -10.1 °C -11.5 °C 34547.4 hPa WNW 15 km/h 6.9 km/h 84 % 0 mm
15:49 -10.1 °C -11.6 °C 34544 hPa NW 17.9 km/h 15.3 km/h 84 % 0 mm
15:54 -10.1 °C -11.6 °C 34540.6 hPa NW 15 km/h 8 km/h 84 % 0 mm
15:59 -10.2 °C -11.7 °C 34537.2 hPa WNW 17.9 km/h 8.5 km/h 84 % 0 mm
16:04 -10.2 °C -11.7 °C 34537.2 hPa NW 17.9 km/h 11.1 km/h 84 % 0 mm
16:09 -10.2 °C -11.6 °C 34537.2 hPa WSW 15 km/h 7.7 km/h 85 % 0 mm
Ladner Weather
Compliments of Weather Underground - 2 mb

Script developed by  Jim McMurry - jmcmurry@mwt.net Adapted for the template by  Wim van der Kuil - Leuven-Template.eu